Time;durP1;ratioP1;P1;durP2;ratioP2;P2;SDS_P1;SDS_P2;PMS_P1;PMS_P2;Temp;Humidity;BMP_temperature;BMP_pressure;BME280_temperature;BME280_humidity;BME280_pressure;Samples;Min_cycle;Max_cycle;Signal;HPM_P1;HPM_P2
2022/09/02 00:01:09;;;;;;;1.00;0.80;;;;;;;15.90;100.00;102156.91;5047962;28;20432;-72
2022/09/02 00:03:34;;;;;;;0.80;0.80;;;;;;;15.13;100.00;102040.69;5028581;28;20562;-72
2022/09/02 00:06:03;;;;;;;1.63;0.80;;;;;;;15.92;100.00;102161.09;5049696;28;20477;-72
2022/09/02 00:08:33;;;;;;;1.80;0.80;;;;;;;14.78;100.00;101990.38;5048884;28;20719;-71
2022/09/02 00:11:05;;;;;;;1.10;0.90;;;;;;;15.67;100.00;102124.75;5046372;28;20774;-71
2022/09/02 00:13:31;;;;;;;1.20;0.90;;;;;;;14.55;100.00;102002.28;5053146;28;20425;-71
2022/09/02 00:15:57;;;;;;;1.80;0.70;;;;;;;15.60;100.00;102128.25;5051587;28;20430;-71
2022/09/02 00:18:23;;;;;;;1.47;0.90;;;;;;;14.96;100.00;102035.81;5034326;28;20464;-71
2022/09/02 00:20:49;;;;;;;1.93;1.10;;;;;;;15.34;100.00;102117.31;5034896;28;20187;-71
2022/09/02 00:23:15;;;;;;;0.90;0.80;;;;;;;15.64;100.00;102135.97;5047890;28;20960;-71
2022/09/02 00:25:43;;;;;;;2.73;1.00;;;;;;;15.67;100.00;102152.63;5049639;28;20920;-72
2022/09/02 00:28:10;;;;;;;1.53;0.90;;;;;;;15.51;100.00;102142.97;5051352;28;20207;-71
2022/09/02 00:30:36;;;;;;;1.40;1.10;;;;;;;15.10;100.00;102078.91;5051335;28;20452;-71
2022/09/02 00:33:02;;;;;;;1.13;0.90;;;;;;;15.52;100.00;102135.69;5046877;28;20450;-71
2022/09/02 00:35:28;;;;;;;1.33;1.20;;;;;;;15.45;100.00;102138.38;5051734;28;20266;-71
2022/09/02 00:37:53;;;;;;;2.10;0.90;;;;;;;15.23;100.00;102117.84;5043363;28;20568;-71
2022/09/02 00:40:19;;;;;;;1.03;0.90;;;;;;;15.14;100.00;102139.63;5048736;28;20195;-71
2022/09/02 00:42:45;;;;;;;1.67;0.80;;;;;;;14.56;100.00;102074.16;5050948;28;20194;-71
2022/09/02 00:45:11;;;;;;;1.20;1.00;;;;;;;14.91;100.00;102144.44;5051919;28;20470;-71
2022/09/02 00:47:37;;;;;;;3.60;0.90;;;;;;;14.41;100.00;102059.88;5051504;28;20668;-71
2022/09/02 00:50:10;;;;;;;1.27;0.90;;;;;;;14.82;100.00;102102.41;5051444;28;20488;-71
2022/09/02 00:52:43;;;;;;;1.30;0.97;;;;;;;15.01;100.00;102130.59;5049611;28;20196;-71
2022/09/02 00:55:15;;;;;;;1.10;0.80;;;;;;;14.76;100.00;102135.59;5052392;28;20918;-71
2022/09/02 00:57:46;;;;;;;1.03;0.77;;;;;;;14.59;100.00;102130.47;5031433;28;20834;-71
2022/09/02 01:00:23;;;;;;;1.27;1.03;;;;;;;14.40;100.00;102083.31;5051544;28;20911;-71
2022/09/02 01:02:53;;;;;;;1.37;0.70;;;;;;;14.08;100.00;102054.97;5048587;28;20941;-72
2022/09/02 01:05:22;;;;;;;1.43;0.80;;;;;;;14.39;100.00;102086.22;5048090;28;20476;-71
2022/09/02 01:07:49;;;;;;;1.10;0.70;;;;;;;14.19;100.00;102061.75;5032848;28;20822;-71
2022/09/02 01:10:21;;;;;;;2.03;0.73;;;;;;;14.79;100.00;102129.81;5052394;28;20425;-71
2022/09/02 01:12:47;;;;;;;1.77;0.90;;;;;;;14.33;100.00;102132.88;5030597;28;20823;-71
2022/09/02 01:15:14;;;;;;;2.10;1.10;;;;;;;13.99;100.00;102048.06;5051421;28;20632;-71
2022/09/02 01:17:47;;;;;;;1.00;0.80;;;;;;;14.65;100.00;102118.88;5051311;28;20261;-71
2022/09/02 01:20:17;;;;;;;0.70;0.70;;;;;;;14.60;100.00;102129.41;5052772;28;20422;-71
2022/09/02 01:22:44;;;;;;;2.30;1.00;;;;;;;14.22;100.00;102136.91;5048204;28;20434;-71
2022/09/02 01:25:17;;;;;;;1.80;0.97;;;;;;;14.00;100.00;102018.19;5049746;28;20461;-71
2022/09/02 01:27:42;;;;;;;1.60;0.97;;;;;;;14.61;100.00;102123.00;5048038;28;20469;-71
2022/09/02 01:30:12;;;;;;;1.03;0.93;;;;;;;14.74;100.00;102122.28;5049429;28;20992;-71
2022/09/02 01:32:37;;;;;;;1.07;0.80;;;;;;;14.60;100.00;102096.19;5049403;28;20249;-71
2022/09/02 01:35:05;;;;;;;2.20;0.90;;;;;;;14.75;100.00;102112.31;5051210;28;21072;-71
2022/09/02 01:37:31;;;;;;;2.07;1.20;;;;;;;14.73;100.00;102109.81;5050950;28;20215;-71
2022/09/02 01:39:56;;;;;;;1.10;1.00;;;;;;;14.74;100.00;102116.03;5049215;28;20434;-71
2022/09/02 01:42:24;;;;;;;1.27;0.90;;;;;;;14.70;100.00;102104.81;5045757;28;20457;-71
2022/09/02 01:44:49;;;;;;;1.23;1.07;;;;;;;14.74;100.00;102095.28;5033395;28;20180;-71
2022/09/02 01:47:18;;;;;;;1.23;1.10;;;;;;;14.10;100.00;102008.94;5050956;28;21222;-71
2022/09/02 01:49:45;;;;;;;1.03;0.90;;;;;;;14.63;100.00;102071.50;5050312;28;20187;-71
2022/09/02 01:52:11;;;;;;;1.33;1.00;;;;;;;14.69;100.00;102095.00;5030340;28;20442;-71
2022/09/02 01:54:37;;;;;;;1.40;1.27;;;;;;;13.88;100.00;101973.88;5049758;28;20445;-71
2022/09/02 01:57:03;;;;;;;1.57;0.83;;;;;;;14.33;100.00;102078.91;5047585;28;20516;-71
2022/09/02 01:59:29;;;;;;;1.73;1.10;;;;;;;14.47;100.00;102080.69;5049770;28;20517;-71
2022/09/02 02:01:54;;;;;;;1.07;0.97;;;;;;;13.80;100.00;101971.31;5048999;28;20188;-71
2022/09/02 02:04:21;;;;;;;1.73;0.90;;;;;;;13.88;100.00;101970.34;5049478;28;20445;-71
2022/09/02 02:06:47;;;;;;;1.10;1.00;;;;;;;14.35;100.00;102093.88;5049553;28;20235;-71
2022/09/02 02:09:15;;;;;;;1.00;0.90;;;;;;;14.46;100.00;102077.16;5049726;28;20457;-71
2022/09/02 02:11:42;;;;;;;1.00;0.90;;;;;;;13.58;100.00;101954.28;5046435;28;20190;-71
2022/09/02 02:14:07;;;;;;;2.40;1.00;;;;;;;14.46;100.00;102087.97;5032314;28;20767;-71
2022/09/02 02:16:33;;;;;;;1.77;1.10;;;;;;;14.46;100.00;102095.19;5039980;28;20425;-71
2022/09/02 02:18:58;;;;;;;1.50;1.07;;;;;;;13.79;100.00;101973.16;5050121;28;20207;-71
2022/09/02 02:21:24;;;;;;;1.20;1.10;;;;;;;14.39;100.00;102070.84;5050993;28;20603;-71
2022/09/02 02:23:50;;;;;;;1.40;0.90;;;;;;;14.63;100.00;102077.72;5048037;28;20213;-71
2022/09/02 02:26:15;;;;;;;3.90;1.30;;;;;;;14.24;100.00;102010.72;5049001;28;20233;-71
2022/09/02 02:28:41;;;;;;;1.97;1.03;;;;;;;14.44;100.00;102062.19;5048009;28;20480;-71
2022/09/02 02:31:06;;;;;;;2.60;1.33;;;;;;;13.81;100.00;101937.94;5049115;28;20321;-71
2022/09/02 02:33:34;;;;;;;1.57;1.27;;;;;;;13.72;100.00;101947.19;5051676;28;20716;-71
2022/09/02 02:36:00;;;;;;;1.33;0.90;;;;;;;14.48;100.00;102060.75;5047209;28;20183;-71
2022/09/02 02:38:26;;;;;;;1.23;1.00;;;;;;;14.01;100.00;102013.63;5031799;28;20911;-71
2022/09/02 02:40:56;;;;;;;0.83;0.83;;;;;;;14.46;100.00;102071.75;5050395;28;20731;-71
2022/09/02 02:43:23;;;;;;;1.20;1.10;;;;;;;14.24;100.00;102054.75;5029582;28;20176;-72
2022/09/02 02:45:48;;;;;;;1.20;1.10;;;;;;;13.94;100.00;101970.44;5048773;28;20576;-71
2022/09/02 02:48:14;;;;;;;3.80;1.23;;;;;;;14.25;100.00;102036.69;5048684;28;20541;-72
2022/09/02 02:50:40;;;;;;;1.67;1.10;;;;;;;13.55;100.00;101939.34;5049016;28;20246;-71
2022/09/02 02:53:05;;;;;;;1.10;1.00;;;;;;;14.18;100.00;102023.13;5047318;28;20180;-71
2022/09/02 02:55:31;;;;;;;1.10;0.90;;;;;;;13.44;100.00;101912.06;5031561;28;20587;-71
2022/09/02 02:57:56;;;;;;;1.23;0.90;;;;;;;14.41;100.00;102066.09;5028990;28;20196;-71
2022/09/02 03:00:27;;;;;;;1.40;1.20;;;;;;;14.40;100.00;102063.59;5049276;28;20191;-71
2022/09/02 03:03:02;;;;;;;1.17;1.07;;;;;;;14.00;100.00;102006.56;5047173;28;20094;-71
2022/09/02 03:05:30;;;;;;;1.80;1.10;;;;;;;13.94;100.00;102007.31;5028513;28;20835;-71
2022/09/02 03:07:55;;;;;;;1.57;1.17;;;;;;;14.39;100.00;102065.47;5049587;28;20962;-71
2022/09/02 03:10:22;;;;;;;1.73;1.40;;;;;;;14.07;100.00;102012.03;5031405;28;20469;-71
2022/09/02 03:12:48;;;;;;;1.70;0.90;;;;;;;14.31;100.00;102065.59;5028827;28;20278;-72
2022/09/02 03:15:16;;;;;;;1.37;1.10;;;;;;;14.25;100.00;102055.56;5049244;28;20421;-71
2022/09/02 03:17:43;;;;;;;2.30;1.37;;;;;;;13.62;100.00;101939.38;5049091;28;20507;-71
2022/09/02 03:20:09;;;;;;;1.33;1.00;;;;;;;13.75;100.00;101993.47;5048680;28;20580;-71
2022/09/02 03:22:37;;;;;;;2.03;1.20;;;;;;;13.86;100.00;102010.16;5047404;28;20498;-71
2022/09/02 03:25:05;;;;;;;1.13;1.03;;;;;;;13.45;100.00;101960.38;5048077;28;20492;-71
2022/09/02 03:27:30;;;;;;;1.10;1.00;;;;;;;13.66;100.00;102013.47;5049002;28;20981;-71
2022/09/02 03:29:56;;;;;;;1.20;1.10;;;;;;;14.01;100.00;102054.09;5045522;28;20442;-71
2022/09/02 03:32:21;;;;;;;1.97;1.23;;;;;;;13.55;100.00;101998.63;5047075;28;20233;-71
2022/09/02 03:34:47;;;;;;;1.03;0.93;;;;;;;14.01;100.00;102041.44;5049294;28;20198;-71
2022/09/02 03:37:12;;;;;;;2.50;0.93;;;;;;;13.34;100.00;101921.28;5048502;28;20195;-71
2022/09/02 03:39:38;;;;;;;1.80;1.00;;;;;;;13.66;100.00;101983.00;5049536;28;20186;-71
2022/09/02 03:42:04;;;;;;;1.70;1.10;;;;;;;13.50;100.00;101924.75;5047298;28;20187;-71
2022/09/02 03:44:29;;;;;;;1.20;1.10;;;;;;;13.68;100.00;101984.47;5047113;28;20442;-71
2022/09/02 03:46:55;;;;;;;1.30;1.20;;;;;;;13.52;100.00;101977.44;5050344;28;20264;-71
2022/09/02 03:49:20;;;;;;;1.30;1.10;;;;;;;13.95;100.00;102025.19;5050189;28;20336;-72
2022/09/02 03:51:46;;;;;;;1.80;1.07;;;;;;;13.16;100.00;101893.06;5052437;28;20190;-71
2022/09/02 03:54:11;;;;;;;2.00;1.13;;;;;;;13.44;100.00;101958.69;5052940;28;20182;-72
2022/09/02 03:56:37;;;;;;;1.43;1.33;;;;;;;14.09;100.00;102042.31;5052542;28;20176;-72
2022/09/02 03:59:03;;;;;;;2.33;1.10;;;;;;;13.45;100.00;101937.97;5051501;28;20376;-72
2022/09/02 04:01:28;;;;;;;1.87;1.37;;;;;;;13.98;100.00;102032.91;5052898;28;20187;-72
2022/09/02 04:03:55;;;;;;;1.40;1.30;;;;;;;13.95;100.00;102038.69;5025298;28;20187;-72
2022/09/02 04:06:23;;;;;;;1.10;1.00;;;;;;;13.06;100.00;101887.97;5052359;28;20242;-72
2022/09/02 04:08:49;;;;;;;1.30;1.10;;;;;;;13.57;100.00;101980.41;5050290;28;20795;-72
2022/09/02 04:11:18;;;;;;;1.40;1.00;;;;;;;14.10;100.00;102039.44;5049375;28;20466;-72
2022/09/02 04:13:45;;;;;;;1.63;1.23;;;;;;;14.11;100.00;102038.41;5049935;28;20443;-72
2022/09/02 04:16:17;;;;;;;2.20;0.90;;;;;;;13.82;100.00;102042.06;5052651;28;20513;-72
2022/09/02 04:18:43;;;;;;;1.13;1.03;;;;;;;13.93;100.00;102035.34;5051221;28;20525;-72
2022/09/02 04:21:09;;;;;;;1.93;1.00;;;;;;;13.95;100.00;102030.59;5050643;28;20953;-72
2022/09/02 04:23:35;;;;;;;1.70;0.90;;;;;;;14.07;100.00;102039.84;5049567;28;20709;-72
2022/09/02 04:26:07;;;;;;;2.37;1.20;;;;;;;13.74;100.00;101975.63;5050228;28;20202;-72
2022/09/02 04:28:33;;;;;;;1.50;1.40;;;;;;;14.12;100.00;102031.19;5049580;28;20465;-72
2022/09/02 04:30:58;;;;;;;1.60;1.20;;;;;;;13.42;100.00;101928.41;5032174;28;20811;-72
2022/09/02 04:33:24;;;;;;;1.70;1.10;;;;;;;13.27;100.00;101914.97;5051653;28;20933;-71
2022/09/02 04:35:51;;;;;;;1.60;1.10;;;;;;;13.12;100.00;101890.75;5033119;28;20176;-72
2022/09/02 04:38:17;;;;;;;1.30;1.20;;;;;;;14.07;100.00;102030.91;5051492;28;20242;-72
2022/09/02 04:40:44;;;;;;;2.43;1.10;;;;;;;14.01;100.00;102035.22;5050025;28;20930;-72
2022/09/02 04:43:11;;;;;;;1.50;1.10;;;;;;;13.99;100.00;102031.88;5049165;28;20461;-72
2022/09/02 04:45:42;;;;;;;1.30;1.10;;;;;;;13.35;100.00;101943.66;5051062;28;20454;-72
2022/09/02 04:48:08;;;;;;;1.30;1.20;;;;;;;13.15;100.00;101919.16;5049002;28;20457;-72
2022/09/02 04:50:36;;;;;;;2.80;1.10;;;;;;;13.51;100.00;101966.84;5052069;28;20429;-72
2022/09/02 04:53:03;;;;;;;2.87;1.50;;;;;;;13.11;100.00;101942.13;5027685;28;20934;-72
2022/09/02 04:55:28;;;;;;;1.50;1.20;;;;;;;13.60;100.00;102016.94;5051533;28;20426;-72
2022/09/02 04:57:54;;;;;;;4.00;1.43;;;;;;;13.51;100.00;101996.50;5027688;28;20450;-72
2022/09/02 05:00:20;;;;;;;1.53;1.43;;;;;;;13.87;100.00;102025.31;5033494;28;20186;-72
2022/09/02 05:02:45;;;;;;;1.43;1.33;;;;;;;13.26;100.00;101929.47;5033027;28;20302;-72
2022/09/02 05:05:11;;;;;;;1.10;1.00;;;;;;;13.68;100.00;102016.84;5034402;28;20244;-72
2022/09/02 05:07:37;;;;;;;1.40;1.30;;;;;;;13.85;100.00;102028.19;5051750;28;20579;-72
2022/09/02 05:10:04;;;;;;;1.57;1.40;;;;;;;13.83;100.00;102016.78;5032282;28;20289;-72
2022/09/02 05:12:34;;;;;;;1.83;1.10;;;;;;;13.69;100.00;101996.94;5031962;28;20426;-72
2022/09/02 05:15:00;;;;;;;1.60;1.30;;;;;;;13.68;100.00;101987.19;5051318;28;21071;-72
2022/09/02 05:17:27;;;;;;;1.67;1.00;;;;;;;14.14;100.00;102043.41;5051994;28;20442;-72
2022/09/02 05:19:53;;;;;;;4.47;1.33;;;;;;;14.00;100.00;102022.72;5050857;28;20421;-72
2022/09/02 05:22:19;;;;;;;3.37;1.10;;;;;;;13.21;100.00;101910.31;5050760;28;20398;-72
2022/09/02 05:24:45;;;;;;;1.80;1.37;;;;;;;13.56;100.00;101985.97;5049248;28;20444;-72
2022/09/02 05:27:11;;;;;;;1.30;1.20;;;;;;;13.90;100.00;102008.75;5049218;28;20218;-72
2022/09/02 05:29:37;;;;;;;3.07;1.57;;;;;;;13.96;100.00;101995.31;5049957;28;20603;-72
2022/09/02 05:32:03;;;;;;;1.57;1.20;;;;;;;13.88;100.00;102016.19;5049708;28;20434;-72
2022/09/02 05:34:29;;;;;;;2.10;1.30;;;;;;;13.40;100.00;101897.31;5051940;28;20263;-72
2022/09/02 05:36:55;;;;;;;1.33;1.20;;;;;;;14.28;100.00;102025.50;5049595;28;20928;-72
2022/09/02 05:39:21;;;;;;;2.17;1.60;;;;;;;13.50;100.00;101895.94;5051131;28;20183;-72
2022/09/02 05:41:46;;;;;;;1.50;1.40;;;;;;;13.49;100.00;101902.38;5046871;28;20442;-72
2022/09/02 05:44:11;;;;;;;1.20;1.10;;;;;;;14.42;100.00;102019.19;5048494;28;20685;-72
2022/09/02 05:46:37;;;;;;;1.37;1.17;;;;;;;13.79;100.00;101954.28;5050200;28;20277;-72
2022/09/02 05:49:07;;;;;;;1.40;1.17;;;;;;;14.05;100.00;101943.94;5049776;28;20180;-72
2022/09/02 05:51:40;;;;;;;2.13;1.10;;;;;;;14.34;100.00;102027.41;5051523;28;20179;-72
2022/09/02 05:54:09;;;;;;;1.43;1.33;;;;;;;14.00;100.00;101931.03;5031120;28;20438;-72
2022/09/02 05:56:37;;;;;;;1.03;0.90;;;;;;;14.53;100.00;101992.72;5049929;28;20430;-72
2022/09/02 05:59:03;;;;;;;2.17;1.20;;;;;;;14.59;100.00;102014.34;5030748;28;20426;-73
2022/09/02 06:01:29;;;;;;;2.60;1.20;;;;;;;13.93;100.00;101897.78;5049473;28;20426;-73
2022/09/02 06:03:56;;;;;;;3.00;0.80;;;;;;;14.66;100.00;102030.59;5050308;28;20179;-72
2022/09/02 06:06:22;;;;;;;1.30;1.20;;;;;;;14.75;100.00;102025.88;5048799;28;20504;-72
2022/09/02 06:08:49;;;;;;;1.50;1.20;;;;;;;14.66;100.00;102027.91;5049741;28;20486;-73
2022/09/02 06:11:16;;;;;;;1.53;1.37;;;;;;;14.74;100.00;102008.84;5049743;28;20602;-73
2022/09/02 06:13:42;;;;;;;1.33;1.10;;;;;;;14.44;100.00;101954.22;5046820;28;20445;-73
2022/09/02 06:16:12;;;;;;;1.73;1.20;;;;;;;14.99;100.00;102014.63;5032176;28;20762;-73
2022/09/02 06:18:37;;;;;;;1.40;1.30;;;;;;;14.50;100.00;101948.03;5046669;28;20200;-73
2022/09/02 06:21:05;;;;;;;1.67;1.20;;;;;;;15.10;100.00;102014.06;5023066;28;20441;-73
2022/09/02 06:23:34;;;;;;;1.13;1.00;;;;;;;14.54;100.00;101930.41;5031023;28;20200;-73
2022/09/02 06:25:59;;;;;;;1.50;1.40;;;;;;;15.23;100.00;102015.97;5051068;28;20454;-73
2022/09/02 06:28:25;;;;;;;1.10;1.00;;;;;;;14.66;100.00;101920.72;5027869;28;20591;-73
2022/09/02 06:30:50;;;;;;;1.30;1.10;;;;;;;14.43;100.00;101861.56;5025188;28;20215;-73
2022/09/02 06:33:16;;;;;;;4.63;1.03;;;;;;;15.09;100.00;101963.72;5031959;28;20884;-73
2022/09/02 06:35:44;;;;;;;1.20;1.10;;;;;;;15.51;100.00;102015.06;5049432;28;20180;-73
2022/09/02 06:38:11;;;;;;;1.40;1.10;;;;;;;15.59;100.00;102013.00;5048394;28;20196;-73
2022/09/02 06:40:45;;;;;;;1.13;0.90;;;;;;;15.53;100.00;102021.91;5029688;28;20870;-73
2022/09/02 06:43:11;;;;;;;1.20;1.10;;;;;;;14.83;100.00;101921.22;5046734;28;20445;-73
2022/09/02 06:45:40;;;;;;;1.60;1.10;;;;;;;15.65;100.00;102011.38;5031059;28;20523;-72
2022/09/02 06:48:06;;;;;;;2.20;1.20;;;;;;;15.24;100.00;101916.81;5048568;28;20227;-72
2022/09/02 06:50:31;;;;;;;1.00;0.83;;;;;;;15.73;100.00;101991.41;5046673;28;20442;-73
2022/09/02 06:52:57;;;;;;;1.10;0.90;;;;;;;15.70;100.00;101991.84;5029718;28;20210;-73
2022/09/02 06:55:22;;;;;;;3.50;1.20;;;;;;;15.66;100.00;101980.56;5050622;28;20184;-73
2022/09/02 06:57:48;;;;;;;1.77;1.10;;;;;;;15.73;100.00;101992.25;5046291;28;20226;-73
2022/09/02 07:00:15;;;;;;;1.30;1.03;;;;;;;15.81;100.00;101997.47;5047490;28;20187;-73
2022/09/02 07:02:41;;;;;;;5.70;1.13;;;;;;;14.99;100.00;101884.94;5049728;28;20743;-73
2022/09/02 07:05:13;;;;;;;1.53;1.20;;;;;;;15.69;100.00;101946.91;5050074;28;20414;-73
2022/09/02 07:07:41;;;;;;;0.80;0.80;;;;;;;16.02;100.00;102015.41;5050130;28;20203;-73
2022/09/02 07:10:10;;;;;;;2.80;1.20;;;;;;;16.12;100.00;102008.78;5045796;28;20437;-73
2022/09/02 07:12:37;;;;;;;1.33;1.10;;;;;;;16.21;100.00;102002.09;5048072;28;20851;-73
2022/09/02 07:15:04;;;;;;;1.23;1.13;;;;;;;16.27;100.00;101999.38;5048901;28;20915;-73
2022/09/02 07:17:30;;;;;;;1.60;1.20;;;;;;;16.26;100.00;101989.63;5031309;28;20807;-73
2022/09/02 07:19:58;;;;;;;1.63;1.10;;;;;;;16.17;100.00;101987.31;5046902;28;20488;-73
2022/09/02 07:22:24;;;;;;;2.10;1.20;;;;;;;16.43;100.00;101986.47;5028938;28;20180;-73
2022/09/02 07:24:49;;;;;;;3.53;1.03;;;;;;;16.39;100.00;101990.66;5049838;28;20426;-73
2022/09/02 07:27:15;;;;;;;3.07;1.10;;;;;;;15.99;100.00;101953.56;5029170;28;21012;-73
2022/09/02 07:29:42;;;;;;;1.33;0.80;;;;;;;16.18;100.00;101957.34;5048862;28;20172;-73
2022/09/02 07:32:09;;;;;;;1.10;1.00;;;;;;;16.05;100.00;101941.09;5048270;28;20263;-73
2022/09/02 07:34:34;;;;;;;6.60;1.50;;;;;;;16.60;100.00;101981.44;5032316;28;20865;-73
2022/09/02 07:37:00;;;;;;;1.70;1.20;;;;;;;16.44;100.00;101961.91;5046891;28;20458;-73
2022/09/02 07:39:25;;;;;;;0.80;0.80;;;;;;;16.04;100.00;101879.91;5023528;28;20230;-73
2022/09/02 07:41:51;;;;;;;0.97;0.90;;;;;;;16.00;100.00;101852.44;5046949;28;20528;-71
2022/09/02 07:44:19;;;;;;;1.00;0.73;;;;;;;16.81;100.00;101975.81;5047182;28;20186;-71
2022/09/02 07:46:44;;;;;;;1.50;1.00;;;;;;;16.39;100.00;101918.38;5048351;28;20207;-71
2022/09/02 07:49:12;;;;;;;2.37;1.13;;;;;;;16.80;100.00;101976.84;5046181;28;20437;-71
2022/09/02 07:51:43;;;;;;;2.00;0.80;;;;;;;16.80;100.00;101957.06;5046360;28;20730;-71
2022/09/02 07:54:11;;;;;;;1.00;0.80;;;;;;;17.00;100.00;101974.06;5049513;28;20472;-71
2022/09/02 07:56:37;;;;;;;5.03;1.00;;;;;;;17.05;100.00;101976.16;5044953;28;20452;-71
2022/09/02 07:59:03;;;;;;;6.83;0.90;;;;;;;16.48;100.00;101876.47;5048695;28;20906;-71
2022/09/02 08:01:29;;;;;;;1.37;0.80;;;;;;;16.72;100.00;101904.75;5049806;28;20263;-71
2022/09/02 08:03:54;;;;;;;1.63;0.97;;;;;;;17.14;100.00;101970.28;5049503;28;20787;-71
2022/09/02 08:06:22;;;;;;;0.90;0.80;;;;;;;17.21;100.00;101974.84;5046556;28;20457;-72
2022/09/02 08:08:48;;;;;;;1.50;1.27;;;;;;;17.22;100.00;101966.50;5048281;28;20221;-71
2022/09/02 08:11:14;;;;;;;0.90;0.70;;;;;;;17.31;100.00;101965.19;5045870;28;20931;-71
2022/09/02 08:13:39;;;;;;;1.30;1.07;;;;;;;17.08;100.00;101907.97;5049007;28;20188;-71
2022/09/02 08:16:05;;;;;;;1.90;1.10;;;;;;;17.06;100.00;101910.88;5048705;28;20271;-71
2022/09/02 08:18:32;;;;;;;1.53;1.00;;;;;;;17.52;100.00;101961.31;5044838;28;20282;-71
2022/09/02 08:20:58;;;;;;;2.30;0.90;;;;;;;16.66;100.00;101804.53;5046920;28;20440;-72
2022/09/02 08:23:23;;;;;;;1.77;1.00;;;;;;;17.57;100.00;101961.50;5047311;28;20465;-72
2022/09/02 08:25:48;;;;;;;1.47;0.90;;;;;;;17.20;100.00;101894.56;5044211;28;20204;-71
2022/09/02 08:28:14;;;;;;;3.23;1.20;;;;;;;17.56;100.00;101953.56;5046941;28;20209;-72
2022/09/02 08:30:39;;;;;;;1.13;1.03;;;;;;;17.81;100.00;101954.47;5039014;28;20190;-72
2022/09/02 08:33:05;;;;;;;1.30;0.80;;;;;;;17.61;100.00;101922.03;5048847;28;20187;-72
2022/09/02 08:35:30;;;;;;;1.50;0.90;;;;;;;16.94;100.00;101804.22;5052167;28;20656;-72
2022/09/02 08:37:59;;;;;;;1.13;1.03;;;;;;;17.90;100.00;101959.66;5049319;28;20703;-72
2022/09/02 08:40:33;;;;;;;1.83;1.00;;;;;;;17.94;100.00;101950.03;5048311;28;20188;-72
2022/09/02 08:43:00;;;;;;;1.43;1.20;;;;;;;17.99;100.00;101950.16;5049578;28;20521;-72
2022/09/02 08:45:38;;;;;;;1.00;0.93;;;;;;;18.06;100.00;101943.66;5052148;28;20501;-72
2022/09/02 08:48:08;;;;;;;1.00;0.90;;;;;;;18.12;100.00;101950.06;5047793;28;20465;-72
2022/09/02 08:50:36;;;;;;;2.83;1.33;;;;;;;18.20;100.00;101949.81;5052763;28;20424;-72
2022/09/02 08:53:17;;;;;;;1.17;1.07;;;;;;;18.32;100.00;101943.66;5051074;28;20418;-72
2022/09/02 08:55:53;;;;;;;1.40;1.30;;;;;;;18.31;100.00;101934.63;5030538;28;20433;-72
2022/09/02 08:58:22;;;;;;;1.80;1.20;;;;;;;18.40;100.00;101937.91;5050632;28;20433;-72
2022/09/02 09:01:09;;;;;;;1.10;1.00;;;;;;;18.41;100.00;101934.16;5052022;28;20421;-72
2022/09/02 09:04:05;;;;;;;3.87;1.40;;;;;;;18.51;100.00;101939.88;5033561;28;20902;-72
2022/09/02 09:06:42;;;;;;;1.07;0.97;;;;;;;18.59;100.00;101926.00;5049116;28;20548;-72
2022/09/02 09:09:28;;;;;;;1.67;1.03;;;;;;;18.65;100.00;101922.38;5051910;28;20512;-72
2022/09/02 09:12:02;;;;;;;2.83;1.27;;;;;;;18.70;100.00;101927.97;5047935;28;20606;-73
2022/09/02 09:14:36;;;;;;;1.20;1.10;;;;;;;18.29;100.00;101856.13;5027733;28;20835;-72
2022/09/02 09:17:26;;;;;;;2.20;1.40;;;;;;;18.55;100.00;101875.06;5032494;28;20944;-72
2022/09/02 09:19:54;;;;;;;1.60;1.50;;;;;;;18.88;100.00;101916.28;5024874;28;20419;-72
2022/09/02 09:22:28;;;;;;;0.83;0.83;;;;;;;18.87;100.00;101916.53;5050000;28;20894;-72
2022/09/02 09:24:56;;;;;;;3.00;1.10;;;;;;;18.59;100.00;101858.06;5050682;28;20422;-72
2022/09/02 09:27:22;;;;;;;1.70;1.20;;;;;;;18.98;100.00;101899.47;5031129;28;20542;-72
2022/09/02 09:29:49;;;;;;;1.50;1.30;;;;;;;18.91;100.00;101891.34;5051388;28;20430;-71
2022/09/02 09:32:29;;;;;;;1.57;1.47;;;;;;;19.12;100.00;101890.06;5031477;28;20430;-72
2022/09/02 09:34:56;;;;;;;3.07;1.30;;;;;;;19.12;100.00;101883.78;5049990;28;20445;-72
2022/09/02 09:37:41;;;;;;;2.73;1.20;;;;;;;18.83;100.00;101807.41;5050786;28;20934;-72
2022/09/02 09:40:22;;;;;;;3.20;1.50;;;;;;;19.43;100.00;101877.25;5050425;28;20830;-72
2022/09/02 09:42:54;;;;;;;3.70;1.50;;;;;;;19.40;100.00;101875.81;5048785;28;20563;-72
2022/09/02 09:45:24;;;;;;;1.57;1.20;;;;;;;19.43;100.00;101871.81;5048838;28;20506;-72
2022/09/02 09:48:14;;;;;;;3.50;1.47;;;;;;;19.52;100.00;101875.03;5050482;28;21318;-72
2022/09/02 09:50:40;;;;;;;1.67;1.37;;;;;;;18.98;100.00;101771.66;5025042;28;20513;-71
2022/09/02 09:53:19;;;;;;;1.93;1.30;;;;;;;19.77;100.00;101872.16;5031726;28;20549;-72
2022/09/02 09:56:05;;;;;;;1.93;0.90;;;;;;;19.76;100.00;101881.38;5050142;28;20418;-72
2022/09/02 09:58:33;;;;;;;2.30;1.40;;;;;;;19.79;100.00;101864.59;5048765;28;20544;-72
2022/09/02 10:01:29;;;;;;;3.37;1.33;;;;;;;19.34;100.00;101786.16;5051190;28;20426;-72
2022/09/02 10:04:02;;;;;;;3.90;1.77;;;;;;;19.81;100.00;101862.44;5047195;28;20537;-72
2022/09/02 10:06:31;;;;;;;1.83;1.70;;;;;;;19.92;100.00;101863.53;5042619;28;20486;-72
2022/09/02 10:09:00;;;;;;;1.83;1.43;;;;;;;19.53;100.00;101789.63;5050112;28;20526;-72
2022/09/02 10:11:27;;;;;;;2.03;1.33;;;;;;;20.07;100.00;101858.41;5025517;28;20472;-72
2022/09/02 10:14:00;;;;;;;1.53;1.40;;;;;;;20.03;100.00;101859.97;5047038;28;20872;-72
2022/09/02 10:16:31;;;;;;;2.03;1.60;;;;;;;19.71;100.00;101770.50;5049840;28;20637;-71
2022/09/02 10:19:18;;;;;;;4.70;1.40;;;;;;;20.12;100.00;101853.09;5050170;28;20448;-71
2022/09/02 10:21:56;;;;;;;3.40;1.57;;;;;;;20.26;100.00;101845.50;5047534;28;20409;-72
2022/09/02 10:24:44;;;;;;;2.30;1.40;;;;;;;20.07;100.00;101823.84;5050940;28;20481;-73
2022/09/02 10:27:39;;;;;;;2.13;1.40;;;;;;;20.14;100.00;101826.47;5049229;28;20489;-72
2022/09/02 10:30:19;;;;;;;1.30;1.20;;;;;;;20.25;100.00;101798.38;5048749;28;20853;-72
2022/09/02 10:33:01;;;;;;;2.60;1.10;;;;;;;20.34;100.00;101815.19;5049390;28;20433;-72
2022/09/02 10:35:29;;;;;;;1.73;1.20;;;;;;;20.58;100.00;101845.13;5048035;28;20930;-72
2022/09/02 10:38:18;;;;;;;1.53;1.43;;;;;;;19.83;100.00;101725.03;5047506;28;20983;-72
2022/09/02 10:40:51;;;;;;;2.43;1.70;;;;;;;20.58;100.00;101828.78;5049848;28;20423;-72
2022/09/02 10:43:35;;;;;;;1.37;1.27;;;;;;;20.71;100.00;101815.69;5047367;28;20434;-72
2022/09/02 10:46:07;;;;;;;2.53;1.30;;;;;;;20.94;100.00;101827.56;5050289;28;20916;-71
2022/09/02 10:48:35;;;;;;;3.33;1.33;;;;;;;20.93;100.00;101820.44;5048557;28;20441;-72
2022/09/02 10:51:00;;;;;;;1.50;1.20;;;;;;;20.90;100.00;101808.13;5049439;28;20428;-73
2022/09/02 10:53:42;;;;;;;1.80;1.30;;;;;;;20.90;100.00;101813.59;5047265;28;20809;-71
2022/09/02 10:56:11;;;;;;;1.60;1.20;;;;;;;20.91;100.00;101826.13;5048851;28;20168;-72
2022/09/02 10:58:57;;;;;;;1.17;0.97;;;;;;;21.10;100.00;101801.41;5047639;28;20458;-72
2022/09/02 11:01:45;;;;;;;1.37;1.20;;;;;;;21.02;100.00;101790.88;5049525;28;20446;-72
2022/09/02 11:04:26;;;;;;;1.40;1.30;;;;;;;21.28;100.00;101795.69;5048375;28;20444;-72
2022/09/02 11:06:55;;;;;;;1.00;0.80;;;;;;;21.11;100.00;101738.41;5032162;28;20489;-71
2022/09/02 11:09:31;;;;;;;3.80;1.50;;;;;;;20.92;100.00;101718.72;5050775;28;20422;-71
2022/09/02 11:12:15;;;;;;;1.53;1.10;;;;;;;21.44;100.00;101792.19;5045680;28;20429;-72
2022/09/02 11:15:20;;;;;;;1.60;1.17;;;;;;;21.26;100.00;101795.13;5032240;28;20429;-72
2022/09/02 11:17:58;;;;;;;0.90;0.90;;;;;;;20.96;100.00;101702.69;5049574;28;20891;-72
2022/09/02 11:20:46;;;;;;;1.00;0.90;;;;;;;21.67;100.00;101787.63;5048135;28;20536;-72
2022/09/02 11:23:17;;;;;;;2.50;1.20;;;;;;;21.87;100.00;101790.66;5049343;28;20840;-72
2022/09/02 11:26:04;;;;;;;0.80;0.80;;;;;;;21.60;100.00;101793.25;5049041;28;20507;-72